Time;durP1;ratioP1;P1;durP2;ratioP2;P2;SDS_P1;SDS_P2;PMS_P1;PMS_P2;Temp;Humidity;BMP_temperature;BMP_pressure;BME280_temperature;BME280_humidity;BME280_pressure;Samples;Min_cycle;Max_cycle;Signal;HPM_P1;HPM_P2
2023/10/16 00:00:40;;;;;;;38.30;11.97;;;;;;;19.36;62.21;98842.47;5071069;28;20190;-60
2023/10/16 00:03:08;;;;;;;61.63;15.27;;;;;;;19.30;62.10;98840.81;5053390;28;20197;-60
2023/10/16 00:05:44;;;;;;;35.10;12.73;;;;;;;19.10;62.54;98846.97;5052600;28;20274;-60
2023/10/16 00:08:12;;;;;;;62.10;15.53;;;;;;;19.05;62.33;98859.59;5052785;28;20241;-60
2023/10/16 00:10:39;;;;;;;38.47;14.13;;;;;;;19.13;62.20;98851.00;5053003;28;20250;-60
2023/10/16 00:13:10;;;;;;;86.73;16.87;;;;;;;18.95;62.53;98862.28;5053097;28;20246;-59
2023/10/16 00:15:40;;;;;;;113.30;16.03;;;;;;;18.76;63.11;98855.75;5052738;28;20299;-59
2023/10/16 00:18:13;;;;;;;42.67;13.90;;;;;;;18.81;62.51;98861.16;5052719;28;20182;-59
2023/10/16 00:20:42;;;;;;;73.00;14.80;;;;;;;18.59;63.17;98871.28;5052647;28;20192;-59
2023/10/16 00:23:11;;;;;;;72.60;14.40;;;;;;;18.44;63.36;98884.66;5052247;28;20198;-60
2023/10/16 00:25:39;;;;;;;62.63;13.97;;;;;;;18.37;63.69;98889.44;5052316;28;20657;-59
2023/10/16 00:28:07;;;;;;;33.33;12.53;;;;;;;18.41;63.48;98885.16;5052246;28;20283;-59
2023/10/16 00:30:33;;;;;;;69.97;14.63;;;;;;;18.29;63.57;98898.00;5052298;28;20275;-59
2023/10/16 00:33:00;;;;;;;47.07;13.67;;;;;;;18.22;63.84;98903.59;5052074;28;20229;-60
2023/10/16 00:35:27;;;;;;;49.20;11.70;;;;;;;18.18;63.69;98897.09;5052463;28;20220;-59
2023/10/16 00:37:56;;;;;;;23.03;10.70;;;;;;;18.08;63.91;98917.72;5052698;28;20192;-59
2023/10/16 00:40:31;;;;;;;27.70;10.60;;;;;;;18.05;64.03;98926.34;5052001;28;20291;-58
2023/10/16 00:43:00;;;;;;;30.83;10.70;;;;;;;18.00;64.00;98916.34;5052293;28;20192;-59
2023/10/16 00:45:27;;;;;;;28.17;10.17;;;;;;;17.88;63.88;98931.03;5052358;28;20224;-61
2023/10/16 00:47:53;;;;;;;31.70;10.33;;;;;;;17.88;63.52;98928.34;5060996;28;20259;-58
2023/10/16 00:50:23;;;;;;;27.87;8.53;;;;;;;17.76;63.30;98941.94;5072170;28;20576;-59
2023/10/16 00:52:51;;;;;;;33.50;8.87;;;;;;;17.56;63.51;98930.22;5071687;28;20195;-59
2023/10/16 00:55:20;;;;;;;30.23;8.30;;;;;;;17.52;63.69;98942.53;5071963;28;20225;-61
2023/10/16 00:57:48;;;;;;;37.27;9.20;;;;;;;17.45;63.93;98950.78;5072086;28;20640;-59
2023/10/16 01:00:16;;;;;;;40.30;8.30;;;;;;;17.54;63.65;98943.06;5071772;28;20671;-59
2023/10/16 01:02:42;;;;;;;49.70;10.43;;;;;;;17.56;63.13;98951.69;5072020;28;20239;-58
2023/10/16 01:05:09;;;;;;;35.80;8.27;;;;;;;17.42;64.04;98959.34;5071736;28;20235;-60
2023/10/16 01:07:36;;;;;;;56.50;9.73;;;;;;;17.37;63.74;98955.75;5071565;28;20711;-58
2023/10/16 01:10:10;;;;;;;18.47;7.50;;;;;;;17.43;63.04;98958.25;5071764;28;20200;-58
2023/10/16 01:12:38;;;;;;;19.70;7.30;;;;;;;17.37;63.57;98963.81;5071752;28;20188;-59
2023/10/16 01:15:08;;;;;;;12.13;7.10;;;;;;;17.33;63.88;98968.06;5071720;28;20231;-59
2023/10/16 01:17:35;;;;;;;28.60;8.50;;;;;;;17.30;63.90;98979.28;5071721;28;20280;-60
2023/10/16 01:20:02;;;;;;;11.07;6.93;;;;;;;17.24;64.04;98981.13;5071435;28;20690;-59
2023/10/16 01:22:34;;;;;;;25.23;7.67;;;;;;;17.16;63.98;98975.38;5071951;28;20198;-60
2023/10/16 01:25:07;;;;;;;12.73;6.70;;;;;;;17.15;63.76;98981.81;5071655;28;20642;-59
2023/10/16 01:27:38;;;;;;;18.40;5.97;;;;;;;17.10;63.62;98989.78;5071701;28;20187;-59
2023/10/16 01:30:06;;;;;;;17.20;6.50;;;;;;;17.11;63.62;99002.16;5071759;28;20184;-60
2023/10/16 01:32:33;;;;;;;13.00;5.60;;;;;;;16.97;63.19;99008.94;5071168;28;20344;-61
2023/10/16 01:35:00;;;;;;;7.53;4.77;;;;;;;16.88;63.23;99010.44;5071491;28;20689;-60
2023/10/16 01:37:29;;;;;;;18.13;4.53;;;;;;;16.87;63.08;99022.25;5071484;28;20329;-61
2023/10/16 01:40:11;;;;;;;40.77;6.60;;;;;;;16.91;61.90;99023.38;5071992;28;20199;-61
2023/10/16 01:42:39;;;;;;;40.20;6.73;;;;;;;16.70;62.32;99027.63;5071436;28;20188;-61
2023/10/16 01:45:08;;;;;;;15.63;4.53;;;;;;;16.70;62.13;99048.28;5071530;28;20205;-60
2023/10/16 01:47:35;;;;;;;15.07;3.73;;;;;;;16.65;61.77;99040.16;5064746;28;20238;-60
2023/10/16 01:50:02;;;;;;;13.37;3.13;;;;;;;16.60;61.60;99048.13;5051596;28;20228;-60
2023/10/16 01:52:33;;;;;;;10.50;3.73;;;;;;;16.60;61.72;99048.13;5051063;28;20722;-60
2023/10/16 01:55:00;;;;;;;12.47;4.80;;;;;;;16.61;62.08;99058.59;5051161;28;20184;-60
2023/10/16 01:57:28;;;;;;;7.10;3.53;;;;;;;16.53;62.37;99052.84;5050993;28;20200;-60
2023/10/16 01:59:56;;;;;;;5.30;3.30;;;;;;;16.43;62.53;99052.69;5051600;28;20193;-60
2023/10/16 02:02:23;;;;;;;4.37;3.30;;;;;;;16.53;62.02;99063.56;5050848;28;20192;-60
2023/10/16 02:04:49;;;;;;;10.23;4.50;;;;;;;16.55;61.58;99069.50;5051237;28;20193;-60
2023/10/16 02:07:16;;;;;;;3.83;3.33;;;;;;;16.51;61.62;99061.13;5050990;28;20197;-61
2023/10/16 02:09:45;;;;;;;6.23;3.70;;;;;;;16.46;62.00;99073.66;5050974;28;20196;-60
2023/10/16 02:12:16;;;;;;;3.17;2.97;;;;;;;16.47;61.57;99081.44;5051291;28;20224;-61
2023/10/16 02:14:43;;;;;;;6.10;3.27;;;;;;;16.42;61.57;99083.22;5051282;28;20193;-60
2023/10/16 02:17:18;;;;;;;7.40;3.07;;;;;;;16.41;61.49;99087.75;5050785;28;20723;-61
2023/10/16 02:19:45;;;;;;;5.50;3.47;;;;;;;16.45;61.15;99094.28;5051417;28;20191;-61
2023/10/16 02:22:14;;;;;;;3.90;2.97;;;;;;;16.48;60.91;99092.97;5050882;28;20255;-61
2023/10/16 02:24:41;;;;;;;3.77;2.53;;;;;;;16.45;60.43;99106.88;5051080;28;20191;-61
2023/10/16 02:27:12;;;;;;;14.40;3.07;;;;;;;16.49;59.87;99105.34;5050841;28;20232;-61
2023/10/16 02:29:45;;;;;;;2.63;2.43;;;;;;;16.43;59.30;99108.97;5051076;28;20185;-61
2023/10/16 02:32:13;;;;;;;6.73;2.20;;;;;;;16.37;59.49;99117.97;5050785;28;20275;-61
2023/10/16 02:34:41;;;;;;;3.33;2.10;;;;;;;16.40;59.35;99120.97;5050923;28;20664;-61
2023/10/16 02:37:10;;;;;;;2.40;2.20;;;;;;;16.33;58.92;99122.19;5050694;28;20322;-62
2023/10/16 02:39:37;;;;;;;2.37;1.97;;;;;;;16.33;58.89;99124.88;5050944;28;20239;-61
2023/10/16 02:42:07;;;;;;;2.43;2.03;;;;;;;16.31;58.66;99121.59;5051097;28;20308;-61
2023/10/16 02:44:38;;;;;;;4.40;2.20;;;;;;;16.36;58.04;99121.69;5053929;28;20197;-61
2023/10/16 02:47:06;;;;;;;5.30;1.93;;;;;;;16.38;57.61;99128.44;5056950;28;20228;-61
2023/10/16 02:49:35;;;;;;;2.53;1.50;;;;;;;16.32;57.45;99131.25;5074346;28;20282;-61
2023/10/16 02:52:04;;;;;;;2.63;1.30;;;;;;;16.29;57.03;99143.28;5074875;28;20192;-61
2023/10/16 02:54:31;;;;;;;15.53;2.33;;;;;;;16.36;56.52;99145.81;5074036;28;20206;-62
2023/10/16 02:57:00;;;;;;;12.27;2.20;;;;;;;16.45;55.80;99153.25;5074177;28;20231;-60
2023/10/16 02:59:27;;;;;;;7.93;1.70;;;;;;;16.43;56.02;99159.91;5073925;28;20235;-60
2023/10/16 03:01:56;;;;;;;5.40;1.90;;;;;;;16.44;55.59;99166.88;5073948;28;20228;-58
2023/10/16 03:04:23;;;;;;;11.53;1.70;;;;;;;16.28;55.97;99170.31;5074149;28;20192;-58
2023/10/16 03:06:54;;;;;;;7.80;1.50;;;;;;;16.22;56.20;99173.97;5074814;28;20311;-58
2023/10/16 03:09:27;;;;;;;8.27;1.90;;;;;;;16.15;56.50;99184.00;5074162;28;20190;-59
2023/10/16 03:12:04;;;;;;;18.63;2.40;;;;;;;16.18;56.21;99176.31;5074233;28;20297;-60
2023/10/16 03:14:44;;;;;;;32.07;3.33;;;;;;;16.16;56.39;99186.47;5073945;28;20195;-59
2023/10/16 03:17:18;;;;;;;14.70;1.30;;;;;;;16.19;56.60;99188.66;5073795;28;20605;-58
2023/10/16 03:19:48;;;;;;;13.40;1.53;;;;;;;16.17;56.81;99201.47;5073969;28;20188;-59
2023/10/16 03:22:17;;;;;;;8.07;2.13;;;;;;;16.11;57.36;99204.31;5073839;28;20246;-59
2023/10/16 03:24:45;;;;;;;48.80;3.30;;;;;;;15.88;58.08;99205.19;5073709;28;20204;-59
2023/10/16 03:27:23;;;;;;;28.93;2.93;;;;;;;15.85;58.15;99222.53;5073483;28;20628;-60
2023/10/16 03:29:51;;;;;;;62.37;4.40;;;;;;;15.57;59.21;99225.13;5073552;28;20188;-59
2023/10/16 03:32:18;;;;;;;65.17;5.70;;;;;;;15.56;59.35;99228.88;5073563;28;20192;-60
2023/10/16 03:34:45;;;;;;;54.77;5.83;;;;;;;15.39;59.82;99219.94;5073258;28;20197;-59
2023/10/16 03:37:14;;;;;;;89.33;6.93;;;;;;;15.26;61.09;99216.63;5073504;28;20216;-59
2023/10/16 03:39:44;;;;;;;55.77;5.40;;;;;;;15.31;61.23;99230.94;5073485;28;20207;-59
2023/10/16 03:42:11;;;;;;;83.13;6.23;;;;;;;15.09;61.95;99237.94;5073644;28;20188;-59
2023/10/16 03:44:41;;;;;;;86.63;8.10;;;;;;;15.01;62.29;99234.75;5072948;28;20563;-60
2023/10/16 03:47:08;;;;;;;132.30;10.33;;;;;;;14.88;62.36;99240.31;5070472;28;20629;-60
2023/10/16 03:49:35;;;;;;;70.17;6.10;;;;;;;14.69;63.11;99241.44;5053292;28;20192;-61
2023/10/16 03:52:07;;;;;;;140.03;12.40;;;;;;;14.63;62.79;99237.00;5053362;28;20235;-62
2023/10/16 03:54:35;;;;;;;37.37;4.47;;;;;;;14.52;63.61;99235.94;5052415;28;20236;-62
2023/10/16 03:57:09;;;;;;;18.97;3.37;;;;;;;14.43;63.92;99239.97;5052978;28;20223;-62
2023/10/16 03:59:38;;;;;;;61.37;5.57;;;;;;;14.31;64.37;99233.75;5053257;28;20624;-62
2023/10/16 04:02:07;;;;;;;25.30;4.03;;;;;;;14.32;64.68;99232.72;5053090;28;20231;-62
2023/10/16 04:04:34;;;;;;;191.37;14.40;;;;;;;14.26;64.52;99248.84;5052904;28;20197;-61
2023/10/16 04:07:01;;;;;;;21.10;4.27;;;;;;;14.26;65.35;99251.50;5053107;28;20567;-62
2023/10/16 04:09:33;;;;;;;15.60;4.50;;;;;;;14.40;64.78;99248.44;5052739;28;20201;-62
2023/10/16 04:12:02;;;;;;;15.70;4.57;;;;;;;14.38;64.96;99265.75;5052675;28;20663;-61
2023/10/16 04:14:44;;;;;;;18.37;4.93;;;;;;;14.33;64.85;99263.72;5052725;28;20204;-62
2023/10/16 04:17:11;;;;;;;9.80;3.80;;;;;;;14.37;64.07;99264.91;5053123;28;20219;-65
2023/10/16 04:19:52;;;;;;;30.00;5.70;;;;;;;14.25;64.31;99258.69;5052681;28;20575;-63
2023/10/16 04:22:19;;;;;;;34.27;5.70;;;;;;;14.11;64.88;99265.22;5052492;28;20647;-63
2023/10/16 04:24:46;;;;;;;22.60;4.93;;;;;;;14.09;64.78;99269.97;5052220;28;20240;-66
2023/10/16 04:27:32;;;;;;;20.17;4.70;;;;;;;14.18;64.90;99276.63;5052478;28;20205;-59
2023/10/16 04:30:32;;;;;;;12.37;4.17;;;;;;;14.24;64.71;99290.97;5052298;28;20721;-61
2023/10/16 04:33:13;;;;;;;16.70;4.17;;;;;;;14.28;64.37;99287.63;5052071;28;20280;-61
2023/10/16 04:38:53;;;;;;;13.33;3.97;;;;;;;14.27;64.57;99291.38;5064453;28;20694;-61
2023/10/16 04:46:55;;;;;;;8.40;3.60;;;;;;;14.26;63.43;99304.94;5071766;28;20211;-66
2023/10/16 04:49:28;;;;;;;21.50;3.60;;;;;;;14.34;62.65;99308.09;5032195;28;20196;-66
2023/10/16 04:52:01;;;;;;;8.03;3.47;;;;;;;14.38;62.09;99309.28;5031892;28;20193;-66
2023/10/16 04:54:37;;;;;;;15.33;4.00;;;;;;;14.45;61.82;99322.56;5032047;28;20267;-69
2023/10/16 04:59:59;;;;;;;15.93;4.57;;;;;;;14.42;60.74;99336.41;5031683;28;20349;-67
2023/10/16 05:02:41;;;;;;;85.17;6.57;;;;;;;14.41;59.99;99356.94;5032052;28;20251;-69
2023/10/16 05:08:07;;;;;;;20.60;5.33;;;;;;;14.38;59.78;99370.75;5030641;28;20196;-69
2023/10/16 05:13:24;;;;;;;15.00;3.73;;;;;;;14.34;59.39;99382.91;5038785;28;20290;-71
2023/10/16 05:18:46;;;;;;;14.80;3.87;;;;;;;14.49;58.61;99395.91;5049168;28;20921;-66
2023/10/16 06:16:28;;;;;;;49.60;6.33;;;;;;;14.48;52.91;99541.28;5033348;28;20219;-67
2023/10/16 06:18:55;;;;;;;24.70;4.40;;;;;;;14.40;53.02;99555.75;5052552;28;20208;-67
2023/10/16 06:21:21;;;;;;;52.87;5.07;;;;;;;14.23;53.13;99546.66;5051910;28;20211;-67
2023/10/16 06:23:50;;;;;;;21.77;3.50;;;;;;;14.34;52.70;99559.28;5056767;28;20201;-68
2023/10/16 06:26:17;;;;;;;13.50;3.30;;;;;;;14.46;52.21;99554.88;5059144;28;20203;-67
2023/10/16 06:28:52;;;;;;;24.87;4.23;;;;;;;14.53;52.12;99552.97;5058871;28;20223;-67
2023/10/16 06:31:23;;;;;;;23.07;3.27;;;;;;;14.41;52.04;99554.72;5053508;28;20195;-69
2023/10/16 06:33:55;;;;;;;66.97;8.33;;;;;;;14.44;51.83;99575.66;5057718;28;20655;-67
2023/10/16 06:36:24;;;;;;;34.10;3.93;;;;;;;14.49;51.30;99583.84;5073975;28;20196;-67
2023/10/16 06:38:52;;;;;;;115.17;9.33;;;;;;;14.41;50.53;99578.75;5074056;28;20282;-68
2023/10/16 06:41:22;;;;;;;45.43;5.30;;;;;;;14.51;50.53;99584.44;5070314;28;20200;-69
2023/10/16 06:43:49;;;;;;;39.83;4.85;;;;;;;14.65;50.83;99599.31;5052579;28;20497;-62
2023/10/16 06:46:23;;;;;;;33.57;9.53;;;;;;;14.72;50.03;99605.44;5052349;28;20249;-65
2023/10/16 06:48:51;;;;;;;55.67;5.43;;;;;;;14.61;48.88;99598.13;5071039;28;20241;-65
2023/10/16 06:51:25;;;;;;;14.00;3.87;;;;;;;14.55;49.34;99608.88;5073869;28;20671;-65
2023/10/16 06:53:56;;;;;;;17.17;3.70;;;;;;;14.67;49.03;99609.81;5073837;28;20564;-65
2023/10/16 06:56:31;;;;;;;21.80;3.97;;;;;;;14.60;48.80;99623.22;5073495;28;20223;-65
2023/10/16 06:58:58;;;;;;;31.90;3.73;;;;;;;14.56;48.77;99622.03;5073529;28;20183;-66
2023/10/16 07:01:26;;;;;;;88.27;8.17;;;;;;;14.62;47.88;99610.44;5073475;28;20659;-66
2023/10/16 07:03:54;;;;;;;26.70;4.70;;;;;;;14.71;47.88;99619.03;5073595;28;20660;-66
2023/10/16 07:06:24;;;;;;;42.37;4.70;;;;;;;14.78;47.57;99628.63;5073620;28;20224;-67
2023/10/16 07:08:53;;;;;;;17.23;3.37;;;;;;;14.64;47.02;99635.13;5073242;28;20287;-65
2023/10/16 07:11:21;;;;;;;9.93;2.90;;;;;;;14.63;46.50;99616.63;5065375;28;20243;-67
2023/10/16 07:13:48;;;;;;;42.33;4.50;;;;;;;14.59;45.91;99634.94;5053437;28;20189;-66
2023/10/16 07:16:16;;;;;;;25.43;3.00;;;;;;;14.68;44.90;99647.03;5053371;28;20375;-67
2023/10/16 07:18:43;;;;;;;22.57;3.23;;;;;;;14.66;45.31;99648.28;5052722;28;20653;-65
2023/10/16 07:21:16;;;;;;;20.23;3.30;;;;;;;14.73;45.29;99657.03;5066231;28;20200;-66
2023/10/16 07:23:44;;;;;;;23.00;3.40;;;;;;;14.76;45.07;99660.13;5073016;28;20184;-65
2023/10/16 07:26:16;;;;;;;24.67;3.33;;;;;;;14.88;45.02;99653.03;5073449;28;20192;-65
2023/10/16 07:28:48;;;;;;;19.93;4.00;;;;;;;14.75;44.07;99669.16;5072364;28;20725;-65
2023/10/16 07:31:16;;;;;;;22.03;3.93;;;;;;;14.60;43.63;99676.69;5073121;28;20184;-65
2023/10/16 07:33:45;;;;;;;28.67;4.30;;;;;;;14.62;43.08;99689.84;5072427;28;20282;-64
2023/10/16 07:36:12;;;;;;;30.83;3.27;;;;;;;14.65;42.97;99678.69;5072999;28;20192;-65
2023/10/16 07:38:39;;;;;;;16.43;2.97;;;;;;;14.64;42.65;99683.25;5072118;28;20773;-65
2023/10/16 07:41:09;;;;;;;22.00;2.80;;;;;;;14.76;42.25;99694.88;5072552;28;20253;-66
2023/10/16 07:43:37;;;;;;;8.03;2.43;;;;;;;14.80;41.96;99680.03;5072140;28;20195;-64
2023/10/16 07:46:19;;;;;;;22.63;3.20;;;;;;;14.88;41.97;99701.16;5072628;28;20666;-65
2023/10/16 07:48:50;;;;;;;14.20;2.70;;;;;;;14.84;42.11;99683.91;5072315;28;20191;-66
2023/10/16 07:51:19;;;;;;;14.97;2.67;;;;;;;14.96;40.76;99689.38;5072509;28;20320;-65
2023/10/16 07:53:48;;;;;;;20.63;3.13;;;;;;;15.00;40.79;99699.38;5072840;28;20282;-65
2023/10/16 07:56:25;;;;;;;12.03;2.30;;;;;;;15.10;40.83;99691.69;5072373;28;20236;-65
2023/10/16 07:58:56;;;;;;;18.87;3.27;;;;;;;14.98;40.38;99706.81;5072283;28;20219;-65
2023/10/16 08:04:06;;;;;;;18.33;3.27;;;;;;;15.19;39.24;99702.91;5070381;28;20282;-65
2023/10/16 08:06:37;;;;;;;15.53;3.33;;;;;;;15.05;39.27;99696.91;5072345;28;20224;-66
2023/10/16 08:11:52;;;;;;;34.50;4.20;;;;;;;15.16;38.26;99701.50;5072544;28;20309;-64
2023/10/16 08:14:22;;;;;;;16.33;2.70;;;;;;;15.17;38.29;99718.38;5071965;28;20283;-65
2023/10/16 08:16:58;;;;;;;23.97;3.07;;;;;;;15.20;37.91;99702.69;5070603;28;20192;-65
2023/10/16 08:19:25;;;;;;;12.87;3.43;;;;;;;15.19;37.59;99717.13;5072004;28;20279;-64
2023/10/16 08:21:54;;;;;;;13.40;2.20;;;;;;;15.42;37.66;99719.22;5054053;28;20283;-65
2023/10/16 08:24:24;;;;;;;28.43;3.67;;;;;;;15.51;37.16;99724.06;5051821;28;20635;-65
2023/10/16 08:26:51;;;;;;;17.47;2.63;;;;;;;15.47;36.94;99727.38;5035816;28;20201;-66
2023/10/16 08:29:19;;;;;;;35.77;4.10;;;;;;;15.48;36.19;99732.53;5032119;28;20280;-66
2023/10/16 08:31:52;;;;;;;10.43;2.40;;;;;;;15.70;36.28;99723.03;5031900;28;20210;-65
2023/10/16 08:34:20;;;;;;;12.53;2.53;;;;;;;15.73;36.25;99738.63;5031737;28;20181;-65
2023/10/16 08:36:50;;;;;;;6.80;2.00;;;;;;;15.89;36.10;99742.59;5031768;28;20193;-69
2023/10/16 08:39:19;;;;;;;5.13;1.83;;;;;;;16.18;35.53;99746.34;5031645;28;20642;-65
2023/10/16 08:41:51;;;;;;;5.23;1.90;;;;;;;16.26;35.77;99738.00;5031714;28;20634;-66
2023/10/16 08:44:19;;;;;;;7.87;2.53;;;;;;;16.18;35.19;99730.28;5031519;28;20232;-66
2023/10/16 08:46:53;;;;;;;50.13;4.53;;;;;;;16.42;34.89;99732.03;5031544;28;20202;-66
2023/10/16 08:49:23;;;;;;;21.73;2.47;;;;;;;16.52;33.69;99737.66;5031901;28;20189;-66
2023/10/16 08:51:52;;;;;;;11.20;1.90;;;;;;;16.60;33.97;99734.66;5031546;28;20661;-66
2023/10/16 08:57:09;;;;;;;14.63;2.10;;;;;;;16.67;33.92;99727.34;5015065;28;20222;-66
2023/10/16 08:59:37;;;;;;;18.07;2.13;;;;;;;16.73;34.01;99742.50;5031171;28;20197;-67
2023/10/16 09:02:07;;;;;;;12.33;2.23;;;;;;;16.98;33.49;99749.34;5031621;28;20615;-66
2023/10/16 09:04:37;;;;;;;8.17;2.13;;;;;;;17.16;33.41;99767.22;5030990;28;20251;-67
2023/10/16 09:07:04;;;;;;;9.47;2.10;;;;;;;17.35;31.96;99766.88;5029949;28;20226;-66
2023/10/16 09:09:32;;;;;;;41.37;5.03;;;;;;;17.20;31.96;99763.03;5030666;28;20696;-66
2023/10/16 09:12:03;;;;;;;15.33;2.13;;;;;;;16.83;32.38;99766.94;5036827;28;20193;-67
2023/10/16 09:14:32;;;;;;;10.90;2.20;;;;;;;16.60;32.75;99764.16;5054970;28;20301;-66
2023/10/16 09:17:00;;;;;;;2.50;1.60;;;;;;;16.67;32.95;99776.44;5056366;28;20196;-63
2023/10/16 09:19:33;;;;;;;8.97;1.90;;;;;;;17.08;32.16;99754.97;5057869;28;20191;-65
2023/10/16 09:22:04;;;;;;;10.10;1.73;;;;;;;17.45;31.40;99758.28;5061057;28;20200;-65
2023/10/16 09:24:31;;;;;;;4.47;1.63;;;;;;;17.75;30.84;99767.03;5051208;28;20626;-67
2023/10/16 09:26:59;;;;;;;10.33;1.67;;;;;;;18.01;30.27;99770.03;5050846;28;20216;-66
2023/10/16 09:29:27;;;;;;;16.43;2.63;;;;;;;18.39;29.91;99761.41;5050726;28;20270;-66
2023/10/16 09:31:54;;;;;;;8.13;1.27;;;;;;;18.47;29.42;99766.41;5051102;28;20707;-67
2023/10/16 09:34:25;;;;;;;8.60;1.63;;;;;;;18.77;29.41;99753.50;5050349;28;20188;-67
2023/10/16 09:39:35;;;;;;;8.33;1.57;;;;;;;19.47;28.96;99758.22;5049990;28;20209;-68
2023/10/16 09:42:11;;;;;;;6.80;1.57;;;;;;;19.72;28.31;99749.66;5050787;28;20680;-66
2023/10/16 09:44:39;;;;;;;10.23;1.77;;;;;;;19.83;28.43;99751.44;5060156;28;20207;-67
2023/10/16 09:47:31;;;;;;;11.80;1.97;;;;;;;20.07;27.71;99733.97;5056189;28;20203;-68
2023/10/16 09:49:59;;;;;;;6.00;1.90;;;;;;;20.25;27.53;99728.25;5042476;28;20692;-68
2023/10/16 09:52:25;;;;;;;5.63;1.40;;;;;;;20.48;27.26;99722.59;5030295;28;20208;-69
2023/10/16 09:54:54;;;;;;;11.10;1.80;;;;;;;19.86;27.63;99715.91;5033975;28;20259;-64
2023/10/16 09:57:23;;;;;;;13.03;1.93;;;;;;;20.23;27.39;99714.22;5033811;28;20193;-61
2023/10/16 10:00:00;;;;;;;3.90;1.43;;;;;;;20.59;26.89;99705.44;5034405;28;20719;-62
2023/10/16 10:02:35;;;;;;;15.13;1.93;;;;;;;20.22;27.08;99702.59;5032997;28;20189;-62
2023/10/16 10:05:10;;;;;;;32.97;2.73;;;;;;;20.16;27.32;99700.94;5034583;28;20221;-62
2023/10/16 10:07:47;;;;;;;6.20;1.00;;;;;;;20.30;27.51;99682.47;5050618;28;20883;-62
2023/10/16 10:13:08;;;;;;;4.50;0.97;;;;;;;20.67;27.36;99688.78;5054980;28;20307;-62
2023/10/16 10:15:37;;;;;;;37.40;3.03;;;;;;;20.61;24.84;99689.78;5054380;28;20272;-63
2023/10/16 10:18:32;;;;;;;3.37;1.17;;;;;;;20.49;25.55;99691.81;5052771;28;20232;-62
2023/10/16 10:20:59;;;;;;;1.73;1.00;;;;;;;20.86;24.95;99687.31;5054313;28;20663;-62
2023/10/16 10:23:26;;;;;;;4.20;1.03;;;;;;;21.00;25.42;99680.44;5054464;28;20220;-62
2023/10/16 10:25:55;;;;;;;5.60;1.10;;;;;;;21.07;25.39;99683.72;5052833;28;20254;-64
2023/10/16 10:28:28;;;;;;;3.23;1.03;;;;;;;21.39;24.00;99691.78;5042945;28;20204;-62
2023/10/16 10:31:02;;;;;;;8.13;1.40;;;;;;;21.74;27.11;99686.59;5048258;28;20200;-61
2023/10/16 10:33:51;;;;;;;4.70;1.20;;;;;;;21.65;21.94;99694.38;5046801;28;20246;-62
2023/10/16 10:36:34;;;;;;;13.37;1.63;;;;;;;21.66;22.36;99696.00;5054208;28;20203;-61
2023/10/16 10:39:43;;;;;;;3.37;1.20;;;;;;;21.53;21.72;99691.06;5054185;28;20246;-60
2023/10/16 10:42:23;;;;;;;6.03;1.43;;;;;;;21.48;22.94;99685.59;5054159;28;20295;-60
2023/10/16 10:45:17;;;;;;;3.47;1.20;;;;;;;22.00;21.71;99693.72;5054281;28;20219;-60
2023/10/16 10:47:44;;;;;;;2.77;1.17;;;;;;;22.16;20.77;99685.41;5060729;28;20189;-61
2023/10/16 10:50:14;;;;;;;9.40;1.20;;;;;;;21.80;20.97;99682.84;5055012;28;20618;-60
2023/10/16 10:52:43;;;;;;;3.77;0.80;;;;;;;21.49;22.00;99675.63;5051135;28;20200;-60
2023/10/16 10:55:18;;;;;;;5.17;0.90;;;;;;;21.56;21.02;99682.41;5066651;28;20196;-60
2023/10/16 10:57:47;;;;;;;5.50;0.90;;;;;;;21.75;25.34;99670.09;5060003;28;20230;-61
2023/10/16 11:00:32;;;;;;;2.53;1.03;;;;;;;21.91;21.02;99674.50;5047071;28;20225;-65
2023/10/16 11:03:08;;;;;;;10.07;1.63;;;;;;;21.73;20.96;99680.38;5039736;28;20192;-66
2023/10/16 11:05:39;;;;;;;5.00;1.00;;;;;;;21.38;20.96;99671.22;5033126;28;20638;-67
2023/10/16 11:08:25;;;;;;;8.53;1.17;;;;;;;21.42;20.98;99678.56;5066221;28;20221;-67
2023/10/16 11:10:53;;;;;;;2.20;1.00;;;;;;;21.50;20.95;99675.34;5053213;28;20184;-67
2023/10/16 11:13:21;;;;;;;8.83;1.20;;;;;;;21.53;24.80;99655.94;5069468;28;20627;-67
2023/10/16 11:15:52;;;;;;;5.83;2.47;;;;;;;21.76;20.68;99660.91;5070808;28;20192;-65
2023/10/16 11:18:20;;;;;;;3.17;1.10;;;;;;;21.66;23.18;99660.84;5052440;28;20688;-65
2023/10/16 11:20:49;;;;;;;1.00;0.70;;;;;;;21.94;20.97;99663.16;5053385;28;20220;-64
2023/10/16 11:23:17;;;;;;;4.97;0.80;;;;;;;22.14;20.37;99662.41;5056766;28;20184;-67
2023/10/16 11:25:50;;;;;;;1.53;0.80;;;;;;;21.85;20.47;99655.81;5072938;28;20753;-65
2023/10/16 11:28:21;;;;;;;4.03;1.00;;;;;;;21.64;20.51;99662.19;5072585;28;20192;-66
2023/10/16 11:30:53;;;;;;;8.70;0.90;;;;;;;21.94;20.81;99662.34;5053021;28;20207;-65
2023/10/16 11:33:34;;;;;;;2.63;0.90;;;;;;;21.98;20.63;99664.25;5050832;28;20189;-66
2023/10/16 11:36:03;;;;;;;10.53;9.13;;;;;;;22.14;22.34;99663.22;5032182;28;20186;-65
2023/10/16 11:38:31;;;;;;;20.70;4.07;;;;;;;22.59;20.31;99659.81;5032306;28;20776;-66
2023/10/16 11:41:04;;;;;;;5.63;1.77;;;;;;;22.87;20.45;99667.41;5033141;28;20199;-66
2023/10/16 11:43:37;;;;;;;4.37;2.80;;;;;;;22.82;19.92;99665.50;5052843;28;20236;-66
2023/10/16 11:46:12;;;;;;;6.17;2.73;;;;;;;22.59;22.54;99663.34;5052423;28;20204;-66
2023/10/16 11:48:46;;;;;;;3.00;1.60;;;;;;;22.74;20.74;99662.53;5041122;28;20196;-67
2023/10/16 11:51:16;;;;;;;7.73;2.27;;;;;;;22.63;19.78;99667.13;5051390;28;20194;-66
2023/10/16 11:53:44;;;;;;;3.37;2.30;;;;;;;22.72;22.86;99667.41;5052907;28;20280;-67
2023/10/16 11:56:13;;;;;;;4.97;2.10;;;;;;;22.56;20.22;99674.69;5052573;28;20234;-66
2023/10/16 11:58:41;;;;;;;9.70;5.60;;;;;;;22.07;18.72;99678.88;5066128;28;20220;-66
2023/10/16 12:01:11;;;;;;;7.93;3.63;;;;;;;21.72;19.59;99676.03;5052609;28;20278;-67
2023/10/16 12:03:38;;;;;;;8.10;5.43;;;;;;;21.44;20.96;99681.78;5052448;28;20185;-66
2023/10/16 12:06:08;;;;;;;7.70;6.83;;;;;;;21.55;21.41;99685.41;5052285;28;20302;-75
2023/10/16 12:08:37;;;;;;;11.07;4.00;;;;;;;21.53;19.64;99692.94;5052278;28;20208;-77
2023/10/16 12:11:04;;;;;;;7.60;2.97;;;;;;;21.36;19.78;99695.00;5052614;28;20288;-73
2023/10/16 12:13:31;;;;;;;14.07;6.97;;;;;;;21.45;19.74;99685.31;5052379;28;20199;-70
2023/10/16 12:15:59;;;;;;;8.23;4.47;;;;;;;21.61;19.95;99682.47;5051895;28;20228;-68
2023/10/16 12:18:28;;;;;;;9.50;5.50;;;;;;;21.57;19.53;99694.88;5052059;28;20217;-70
2023/10/16 12:20:59;;;;;;;7.63;4.10;;;;;;;21.44;19.04;99698.00;5052130;28;20288;-68
2023/10/16 12:23:26;;;;;;;7.67;4.67;;;;;;;21.38;18.85;99685.56;5051511;28;20197;-72
2023/10/16 12:25:53;;;;;;;5.73;4.73;;;;;;;21.62;20.03;99686.78;5052461;28;20193;-70
2023/10/16 12:28:20;;;;;;;8.87;4.83;;;;;;;21.30;18.88;99687.94;5051876;28;20274;-68
2023/10/16 12:30:48;;;;;;;4.90;2.50;;;;;;;21.28;19.56;99695.50;5051865;28;20449;-70
2023/10/16 12:33:16;;;;;;;5.13;2.10;;;;;;;21.64;25.86;99675.72;5051318;28;20583;-76
2023/10/16 12:35:43;;;;;;;12.50;7.27;;;;;;;21.81;19.74;99684.47;5051778;28;20205;-74
2023/10/16 12:38:10;;;;;;;10.10;3.93;;;;;;;21.80;19.39;99689.06;5051191;28;20204;-73
2023/10/16 12:40:38;;;;;;;6.07;1.80;;;;;;;21.15;19.25;99685.94;5051720;28;20576;-74
2023/10/16 12:43:06;;;;;;;4.37;2.33;;;;;;;20.76;19.62;99689.94;5052064;28;20602;-75
2023/10/16 12:45:34;;;;;;;2.13;2.03;;;;;;;20.79;20.42;99675.09;5051325;28;20250;-74
2023/10/16 12:48:01;;;;;;;5.53;2.70;;;;;;;21.19;21.00;99689.75;5049604;28;20192;-74
2023/10/16 12:50:29;;;;;;;5.23;3.47;;;;;;;21.43;20.26;99699.09;5051337;28;20201;-76
2023/10/16 12:52:58;;;;;;;3.97;3.67;;;;;;;21.66;22.26;99698.69;5048855;28;20200;-74
2023/10/16 12:55:25;;;;;;;7.07;5.47;;;;;;;21.63;19.57;99709.22;5051060;28;20208;-73
2023/10/16 12:57:52;;;;;;;17.17;8.97;;;;;;;21.59;20.95;99697.28;5050216;28;20196;-72
2023/10/16 13:00:20;;;;;;;7.37;3.93;;;;;;;21.51;22.91;99693.19;5050862;28;20228;-72
2023/10/16 13:02:48;;;;;;;5.93;2.07;;;;;;;21.54;20.11;99713.50;5053531;28;20650;-74
2023/10/16 13:05:15;;;;;;;39.47;5.93;;;;;;;21.75;21.08;99702.56;5071270;28;20228;-73
2023/10/16 13:07:44;;;;;;;3.30;3.00;;;;;;;21.78;20.16;99707.44;5070683;28;20196;-73
2023/10/16 13:10:14;;;;;;;2.67;1.97;;;;;;;21.68;20.00;99696.53;5063653;28;20212;-71